createdAt,value
2023-04-01T00:01:56.097Z,77.38
2023-04-01T00:04:23.777Z,77.41
2023-04-01T00:06:51.334Z,77.38
2023-04-01T00:09:19.021Z,77.38
2023-04-01T00:11:46.549Z,77.32
2023-04-01T00:14:14.131Z,77.37
2023-04-01T00:16:41.904Z,77.36
2023-04-01T00:19:09.639Z,77.57
2023-04-01T00:21:37.329Z,77.62
2023-04-01T00:24:04.949Z,77.69
2023-04-01T00:26:32.511Z,77.77
2023-04-01T00:29:00.150Z,77.94
2023-04-01T00:31:28.015Z,78.31
2023-04-01T00:33:55.609Z,78.04
2023-04-01T00:36:23.421Z,78.21
2023-04-01T00:38:51.130Z,78.37
2023-04-01T00:41:20.195Z,78.66
2023-04-01T00:43:50.437Z,79.01
2023-04-01T00:46:18.233Z,79.00
2023-04-01T00:48:53.349Z,79.01
2023-04-01T00:51:28.684Z,79.85
2023-04-01T00:53:58.842Z,79.99
2023-04-01T00:56:49.235Z,80.11
2023-04-01T00:59:29.741Z,80.42
2023-04-01T01:01:57.577Z,80.67
2023-04-01T01:04:30.854Z,80.75
2023-04-01T01:07:05.078Z,80.82
2023-04-01T01:09:35.522Z,80.72
2023-04-01T01:12:21.456Z,80.92
2023-04-01T01:15:17.501Z,81.19
2023-04-01T01:18:18.897Z,81.28
2023-04-01T01:21:19.219Z,81.24
2023-04-01T01:24:10.274Z,81.30
2023-04-01T01:26:40.620Z,81.16
2023-04-01T01:29:45.191Z,80.87
2023-04-01T01:32:31.270Z,80.83
2023-04-01T01:35:38.352Z,80.80
2023-04-01T01:38:14.509Z,80.55
2023-04-01T01:40:43.417Z,80.52
2023-04-01T01:43:15.862Z,80.65
2023-04-01T01:45:52.586Z,80.19
2023-04-01T01:48:20.237Z,80.34
2023-04-01T01:50:49.469Z,80.17
2023-04-01T01:53:17.111Z,80.41
2023-04-01T01:55:46.914Z,80.34
2023-04-01T01:58:25.951Z,80.40
2023-04-01T02:00:57.078Z,80.64
2023-04-01T02:03:27.782Z,80.74
2023-04-01T02:05:59.976Z,80.85
2023-04-01T02:08:35.031Z,80.83
2023-04-01T02:11:06.769Z,80.87
2023-04-01T02:13:57.242Z,80.79
2023-04-01T02:16:29.814Z,80.81
2023-04-01T02:18:59.469Z,80.72
2023-04-01T02:21:31.875Z,80.81
2023-04-01T02:24:03.054Z,80.89
2023-04-01T02:26:31.256Z,80.95
2023-04-01T02:29:02.019Z,81.02
2023-04-01T02:31:29.999Z,81.09
2023-04-01T02:33:58.596Z,81.02
2023-04-01T02:36:26.332Z,80.88
2023-04-01T02:38:56.794Z,81.01
2023-04-01T02:41:24.368Z,81.04
2023-04-01T02:43:51.954Z,80.91
2023-04-01T02:46:19.570Z,80.87
2023-04-01T02:48:47.228Z,81.09
2023-04-01T02:51:16.143Z,81.05
2023-04-01T02:53:45.029Z,81.30
2023-04-01T02:56:12.583Z,81.30
2023-04-01T02:58:40.334Z,81.21
2023-04-01T03:01:07.983Z,81.16
2023-04-01T03:03:35.566Z,81.26
2023-04-01T03:06:08.582Z,81.23
2023-04-01T03:08:36.369Z,81.26
2023-04-01T03:11:04.708Z,81.44
2023-04-01T03:13:32.902Z,81.41
2023-04-01T03:16:01.549Z,81.75
2023-04-01T03:18:29.623Z,81.64
2023-04-01T03:20:57.301Z,81.55
2023-04-01T03:23:24.868Z,81.63
2023-04-01T03:25:52.437Z,81.55
2023-04-01T03:28:19.978Z,81.69
2023-04-01T03:30:47.536Z,81.79
2023-04-01T03:33:15.125Z,81.84
2023-04-01T03:35:42.685Z,81.93
2023-04-01T03:38:10.230Z,82.02
2023-04-01T03:40:37.836Z,81.93
2023-04-01T03:43:05.513Z,82.06
2023-04-01T03:45:33.415Z,82.44
2023-04-01T03:48:01.336Z,83.01
2023-04-01T03:50:30.473Z,83.16
2023-04-01T03:52:58.885Z,83.39
2023-04-01T03:55:26.455Z,83.37
2023-04-01T03:57:54.102Z,83.43
2023-04-01T04:00:21.671Z,83.42
2023-04-01T04:02:49.373Z,83.95
2023-04-01T04:05:17.008Z,83.78
2023-04-01T04:07:44.559Z,83.87
2023-04-01T04:10:12.171Z,83.98
2023-04-01T04:12:39.801Z,83.78
2023-04-01T04:15:08.995Z,83.82
2023-04-01T04:17:36.590Z,83.99
2023-04-01T04:20:04.816Z,84.01
2023-04-01T04:22:32.542Z,83.98
2023-04-01T04:25:00.104Z,84.09
2023-04-01T04:27:27.651Z,83.89
2023-04-01T04:29:55.202Z,84.04
2023-04-01T04:32:22.779Z,84.01
2023-04-01T04:34:50.331Z,83.80
2023-04-01T04:37:17.967Z,83.74
2023-04-01T04:39:45.517Z,83.70
2023-04-01T04:42:13.129Z,83.79
2023-04-01T04:44:40.683Z,83.84
2023-04-01T04:47:08.366Z,83.73
2023-04-01T04:49:35.986Z,83.56
2023-04-01T04:52:03.581Z,83.60
2023-04-01T04:54:31.224Z,83.42
2023-04-01T04:56:58.953Z,83.49
2023-04-01T04:59:26.579Z,83.32
2023-04-01T05:01:54.142Z,83.24
2023-04-01T05:04:21.709Z,82.99
2023-04-01T05:06:49.329Z,82.76
2023-04-01T05:09:16.899Z,82.57
2023-04-01T05:11:44.493Z,82.50
2023-04-01T05:14:16.819Z,82.34
2023-04-01T05:16:44.683Z,82.07
2023-04-01T05:19:12.284Z,82.03
2023-04-01T05:21:39.860Z,81.93
2023-04-01T05:24:10.608Z,81.56
2023-04-01T05:26:38.206Z,81.50
2023-04-01T05:29:05.816Z,81.32
2023-04-01T05:31:33.596Z,81.07
2023-04-01T05:34:01.232Z,80.75
2023-04-01T05:36:28.839Z,80.42
2023-04-01T05:38:56.758Z,80.19
2023-04-01T05:41:24.350Z,79.77
2023-04-01T05:43:51.906Z,79.66
2023-04-01T05:46:19.471Z,79.17
2023-04-01T05:48:47.101Z,78.83
2023-04-01T05:51:15.920Z,78.11
2023-04-01T05:53:43.913Z,77.68
2023-04-01T05:56:11.564Z,77.20
2023-04-01T05:58:39.582Z,76.80
2023-04-01T06:01:13.937Z,76.57
2023-04-01T06:03:43.871Z,76.23
2023-04-01T06:06:16.789Z,76.18
2023-04-01T06:08:44.456Z,75.76
2023-04-01T06:11:17.903Z,75.56
2023-04-01T06:14:24.410Z,75.91
2023-04-01T06:17:03.953Z,75.98
2023-04-01T06:20:22.591Z,76.08
2023-04-01T06:23:26.810Z,75.82
2023-04-01T06:26:00.152Z,76.05
2023-04-01T06:28:36.691Z,75.70
2023-04-01T06:31:35.587Z,75.50
2023-04-01T06:34:21.776Z,75.22
2023-04-01T06:37:10.705Z,75.38
2023-04-01T06:40:05.477Z,75.46
2023-04-01T06:42:59.978Z,75.22
2023-04-01T06:46:05.774Z,74.69
2023-04-01T06:48:51.663Z,74.52
2023-04-01T06:51:37.377Z,74.84
2023-04-01T06:54:12.932Z,74.45
2023-04-01T06:56:43.511Z,73.56
2023-04-01T06:59:16.373Z,73.06
2023-04-01T07:01:56.669Z,72.64
2023-04-01T07:04:27.028Z,72.26
2023-04-01T07:07:06.802Z,71.76
2023-04-01T07:09:39.800Z,71.76
2023-04-01T07:12:16.457Z,70.88
2023-04-01T07:14:46.154Z,70.22
2023-04-01T07:17:21.626Z,70.58
2023-04-01T07:20:08.360Z,70.82
2023-04-01T07:22:52.458Z,69.87
2023-04-01T07:25:35.874Z,70.01
2023-04-01T07:28:07.402Z,68.96
2023-04-01T07:30:49.358Z,68.78
2023-04-01T07:33:59.476Z,67.67
2023-04-01T07:36:33.206Z,67.46
2023-04-01T07:39:24.956Z,67.69
2023-04-01T07:42:16.758Z,68.18
2023-04-01T07:45:11.923Z,68.52
2023-04-01T07:47:57.926Z,68.92
2023-04-01T07:50:44.935Z,69.21
2023-04-01T07:53:37.254Z,69.34
2023-04-01T07:56:13.082Z,68.25
2023-04-01T07:59:06.778Z,68.07
2023-04-01T08:01:52.214Z,68.10
2023-04-01T08:04:31.542Z,68.99
2023-04-01T08:07:10.454Z,68.41
2023-04-01T08:10:17.070Z,69.15
2023-04-01T08:13:09.468Z,70.50
2023-04-01T08:15:49.367Z,71.87
2023-04-01T08:18:22.756Z,72.64
2023-04-01T08:21:00.848Z,73.09
2023-04-01T08:23:33.595Z,72.90
2023-04-01T08:26:28.786Z,72.67
2023-04-01T08:29:16.807Z,72.41
2023-04-01T08:32:04.253Z,72.32
2023-04-01T08:34:41.379Z,72.41
2023-04-01T08:37:24.508Z,72.05
2023-04-01T08:39:59.809Z,71.02
2023-04-01T08:42:49.341Z,70.34
2023-04-01T08:45:26.952Z,69.49
2023-04-01T08:48:13.428Z,69.30
2023-04-01T08:50:50.029Z,67.09
2023-04-01T08:53:48.559Z,66.66
2023-04-01T08:56:21.319Z,64.59
2023-04-01T08:59:10.657Z,65.50
2023-04-01T09:02:03.906Z,66.28
2023-04-01T09:05:19.487Z,67.74
2023-04-01T09:08:09.256Z,69.85
2023-04-01T09:10:58.168Z,71.23
2023-04-01T09:13:59.776Z,72.97
2023-04-01T09:17:05.061Z,73.63
2023-04-01T09:19:32.546Z,73.40
2023-04-01T09:22:31.261Z,72.47
2023-04-01T09:25:20.484Z,72.04
2023-04-01T09:27:58.634Z,70.77
2023-04-01T09:30:44.587Z,71.44
2023-04-01T09:33:36.898Z,71.49
2023-04-01T09:36:12.442Z,70.26
2023-04-01T09:38:59.711Z,69.80
2023-04-01T09:41:31.772Z,68.70
2023-04-01T09:44:26.298Z,67.82
2023-04-01T09:47:21.692Z,67.37
2023-04-01T09:50:21.350Z,66.64
2023-04-01T09:53:14.641Z,67.34
2023-04-01T09:55:44.892Z,68.14
2023-04-01T09:58:47.445Z,69.17
2023-04-01T10:01:23.768Z,71.42
2023-04-01T10:04:32.713Z,72.52
2023-04-01T10:07:30.953Z,72.31
2023-04-01T10:10:23.256Z,70.34
2023-04-01T10:13:17.544Z,68.91
2023-04-01T10:16:23.885Z,66.96
2023-04-01T10:19:06.181Z,65.08
2023-04-01T10:21:58.786Z,62.41
2023-04-01T10:24:57.908Z,62.38
2023-04-01T10:27:35.576Z,62.18
2023-04-01T10:31:05.356Z,62.79
2023-04-01T10:34:10.497Z,64.95
2023-04-01T10:36:54.410Z,65.80
2023-04-01T10:39:24.874Z,65.03
2023-04-01T10:41:58.313Z,65.57
2023-04-01T10:44:36.204Z,65.71
2023-04-01T10:47:38.237Z,65.43
2023-04-01T10:50:30.082Z,66.48
2023-04-01T10:53:10.080Z,67.26
2023-04-01T10:55:48.951Z,68.29
2023-04-01T10:58:28.341Z,72.00
2023-04-01T11:01:21.378Z,75.47
2023-04-01T11:03:57.959Z,76.74
2023-04-01T11:07:00.556Z,77.15
2023-04-01T11:09:40.174Z,76.05
2023-04-01T11:12:32.999Z,73.43
2023-04-01T11:15:15.807Z,70.07
2023-04-01T11:17:50.155Z,67.26
2023-04-01T11:21:15.093Z,65.96
2023-04-01T11:24:04.319Z,63.67
2023-04-01T11:27:00.467Z,61.38
2023-04-01T11:29:56.710Z,61.80
2023-04-01T11:32:48.437Z,60.59
2023-04-01T11:35:53.180Z,61.20
2023-04-01T11:38:27.757Z,61.60
2023-04-01T11:41:25.159Z,61.62
2023-04-01T11:44:17.735Z,58.20
2023-04-01T11:47:24.871Z,53.35
2023-04-01T11:50:16.018Z,54.29
2023-04-01T11:52:49.498Z,53.09
2023-04-01T11:55:54.407Z,51.76
2023-04-01T11:58:42.948Z,49.70
2023-04-01T12:01:32.074Z,45.42
2023-04-01T12:04:24.913Z,46.09
2023-04-01T12:07:40.968Z,48.15
2023-04-01T12:10:41.161Z,50.09
2023-04-01T12:13:24.076Z,51.99
2023-04-01T12:16:14.958Z,54.42
2023-04-01T12:18:47.644Z,57.44
2023-04-01T12:21:28.384Z,59.71
2023-04-01T12:24:14.329Z,63.34
2023-04-01T12:27:03.206Z,66.48
2023-04-01T12:29:49.190Z,68.91
2023-04-01T12:32:38.630Z,70.89
2023-04-01T12:35:18.078Z,72.02
2023-04-01T12:38:09.304Z,72.85
2023-04-01T12:40:48.657Z,73.84
2023-04-01T12:43:19.180Z,74.51
2023-04-01T12:46:02.368Z,75.50
2023-04-01T12:48:55.996Z,75.83
2023-04-01T12:51:49.636Z,75.43
2023-04-01T12:54:52.432Z,75.25
2023-04-01T12:57:57.300Z,75.00
2023-04-01T13:00:24.845Z,74.97
2023-04-01T13:03:29.950Z,74.48
2023-04-01T13:06:25.588Z,74.13
2023-04-01T13:09:20.806Z,73.41
2023-04-01T13:11:55.456Z,73.16
2023-04-01T13:14:37.839Z,72.42
2023-04-01T13:17:36.464Z,72.70
2023-04-01T13:20:10.015Z,72.84
2023-04-01T13:22:46.646Z,72.38
2023-04-01T13:25:31.102Z,72.06
2023-04-01T13:28:18.592Z,70.93
2023-04-01T13:30:54.463Z,72.38
2023-04-01T13:33:46.608Z,72.55
2023-04-01T13:36:48.103Z,72.75
2023-04-01T13:39:36.774Z,73.18
2023-04-01T13:42:28.011Z,73.13
2023-04-01T13:45:03.312Z,72.32
2023-04-01T13:48:08.927Z,71.82
2023-04-01T13:50:39.540Z,71.48
2023-04-01T13:53:28.554Z,71.21
2023-04-01T13:56:33.814Z,70.97
2023-04-01T13:59:22.887Z,70.35
2023-04-01T14:01:50.419Z,68.28
2023-04-01T14:04:42.720Z,68.54
2023-04-01T14:07:33.713Z,68.98
2023-04-01T14:10:19.897Z,70.22
2023-04-01T14:12:52.913Z,72.26
2023-04-01T14:15:20.491Z,74.22
2023-04-01T14:18:09.557Z,76.46
2023-04-01T14:20:50.453Z,78.93
2023-04-01T14:23:39.317Z,80.86
2023-04-01T14:26:18.907Z,81.18
2023-04-01T14:29:02.604Z,80.62
2023-04-01T14:31:44.019Z,79.91
2023-04-01T14:34:41.482Z,79.53
2023-04-01T14:37:33.279Z,78.81
2023-04-01T14:40:13.032Z,78.77
2023-04-01T14:43:13.106Z,78.59
2023-04-01T14:46:18.659Z,78.27
2023-04-01T14:49:00.627Z,77.74
2023-04-01T14:51:41.908Z,77.73
2023-04-01T14:54:12.225Z,77.82
2023-04-01T14:56:44.016Z,76.90
2023-04-01T14:59:18.457Z,76.15
2023-04-01T15:02:04.557Z,75.95
2023-04-01T15:04:53.229Z,75.98
2023-04-01T15:07:57.878Z,77.57
2023-04-01T15:10:46.829Z,79.00
2023-04-01T15:13:29.890Z,79.33
2023-04-01T15:16:15.752Z,79.37
2023-04-01T15:19:10.414Z,79.32
2023-04-01T15:21:40.620Z,79.25
2023-04-01T15:24:12.952Z,79.50
2023-04-01T15:26:47.787Z,79.38
2023-04-01T15:29:33.851Z,79.31
2023-04-01T15:32:29.122Z,79.29
2023-04-01T15:35:01.996Z,79.58
2023-04-01T15:37:38.127Z,79.84
2023-04-01T15:40:44.138Z,79.95
2023-04-01T15:43:50.030Z,80.46
2023-04-01T15:46:49.681Z,81.00
2023-04-01T15:49:44.287Z,81.40
2023-04-01T15:52:43.774Z,81.16
2023-04-01T15:55:33.112Z,81.41
2023-04-01T15:58:30.482Z,81.13
2023-04-01T16:01:26.057Z,81.13
2023-04-01T16:04:15.377Z,80.87
2023-04-01T16:07:01.428Z,80.68
2023-04-01T16:09:51.723Z,80.44
2023-04-01T16:12:38.890Z,80.31
2023-04-01T16:15:21.577Z,80.03
2023-04-01T16:18:04.052Z,80.03
2023-04-01T16:20:50.849Z,80.38
2023-04-01T16:23:37.760Z,80.79
2023-04-01T16:26:24.961Z,80.88
2023-04-01T16:28:59.122Z,81.24
2023-04-01T16:31:26.666Z,81.33
2023-04-01T16:34:07.564Z,81.50
2023-04-01T16:36:42.811Z,81.46
2023-04-01T16:39:42.548Z,81.89
2023-04-01T16:42:44.303Z,82.23
2023-04-01T16:45:29.854Z,82.59
2023-04-01T16:48:07.127Z,82.62
2023-04-01T16:51:00.008Z,82.55
2023-04-01T16:53:46.365Z,82.63
2023-04-01T16:56:25.769Z,82.82
2023-04-01T16:59:08.515Z,83.15
2023-04-01T17:01:56.541Z,83.15
2023-04-01T17:04:35.214Z,83.75
2023-04-01T17:07:27.484Z,83.87
2023-04-01T17:10:16.006Z,84.14
2023-04-01T17:12:52.590Z,84.18
2023-04-01T17:15:33.417Z,84.49
2023-04-01T17:18:21.119Z,84.37
2023-04-01T17:21:01.743Z,84.41
2023-04-01T17:24:17.812Z,84.60
2023-04-01T17:26:52.259Z,84.66
2023-04-01T17:29:40.478Z,84.88
2023-04-01T17:32:12.023Z,84.83
2023-04-01T17:34:59.152Z,84.89
2023-04-01T17:37:26.670Z,84.83
2023-04-01T17:40:18.781Z,84.87
2023-04-01T17:42:57.719Z,84.84
2023-04-01T17:45:34.359Z,84.81
2023-04-01T17:48:39.378Z,84.80
2023-04-01T17:51:22.448Z,84.93
2023-04-01T17:53:57.963Z,85.02
2023-04-01T17:56:53.674Z,85.30
2023-04-01T17:59:39.930Z,85.45
2023-04-01T18:02:39.716Z,85.40
2023-04-01T18:05:33.550Z,85.33
2023-04-01T18:08:03.779Z,85.54
2023-04-01T18:10:58.923Z,85.54
2023-04-01T18:13:49.033Z,85.47
2023-04-01T18:16:47.722Z,85.54
2023-04-01T18:19:26.339Z,85.85
2023-04-01T18:22:16.872Z,86.29
2023-04-01T18:24:55.175Z,86.60
2023-04-01T18:27:29.277Z,87.45
2023-04-01T18:30:19.694Z,87.27
2023-04-01T18:33:06.414Z,87.24
2023-04-01T18:35:46.040Z,87.13
2023-04-01T18:38:17.845Z,87.38
2023-04-01T18:41:11.897Z,87.43
2023-04-01T18:44:12.591Z,87.73
2023-04-01T18:47:00.700Z,87.81
2023-04-01T18:49:31.411Z,87.52
2023-04-01T18:52:10.451Z,87.97
2023-04-01T18:55:19.002Z,88.12
2023-04-01T18:57:50.979Z,88.07
2023-04-01T19:00:27.306Z,87.87
2023-04-01T19:03:26.816Z,88.10
2023-04-01T19:05:59.843Z,88.38
2023-04-01T19:08:34.436Z,88.23
2023-04-01T19:11:13.940Z,88.15
2023-04-01T19:13:57.396Z,87.93
2023-04-01T19:16:57.772Z,87.79
2023-04-01T19:19:50.208Z,87.94
2023-04-01T19:22:26.254Z,87.90
2023-04-01T19:25:24.243Z,87.90
2023-04-01T19:27:54.726Z,87.99
2023-04-01T19:30:52.135Z,88.00
2023-04-01T19:33:45.554Z,88.08
2023-04-01T19:36:48.612Z,87.90
2023-04-01T19:39:30.949Z,87.81
2023-04-01T19:42:08.452Z,88.00
2023-04-01T19:44:38.704Z,87.73
2023-04-01T19:47:15.122Z,88.07
2023-04-01T19:50:13.176Z,88.42
2023-04-01T19:52:42.134Z,88.41
2023-04-01T19:55:31.699Z,88.22
2023-04-01T19:58:14.808Z,88.22
2023-04-01T20:00:47.601Z,88.01
2023-04-01T20:03:34.039Z,87.99
2023-04-01T20:06:14.055Z,87.96
2023-04-01T20:09:19.084Z,87.99
2023-04-01T20:12:02.138Z,87.91
2023-04-01T20:14:38.489Z,87.78
2023-04-01T20:17:33.725Z,87.81
2023-04-01T20:20:15.510Z,87.87
2023-04-01T20:22:45.892Z,87.83
2023-04-01T20:25:18.869Z,87.79
2023-04-01T20:27:58.535Z,87.83
2023-04-01T20:30:31.822Z,87.90
2023-04-01T20:33:26.437Z,87.95
2023-04-01T20:36:17.234Z,87.97
2023-04-01T20:39:12.802Z,88.31
2023-04-01T20:41:52.589Z,88.46
2023-04-01T20:44:56.158Z,88.32
2023-04-01T20:47:45.391Z,88.35
2023-04-01T20:50:51.758Z,88.28
2023-04-01T20:53:43.688Z,88.35
2023-04-01T20:56:15.356Z,88.37
2023-04-01T20:59:24.392Z,88.42
2023-04-01T21:02:09.832Z,88.37
2023-04-01T21:05:15.364Z,88.34
2023-04-01T21:07:47.290Z,88.35
2023-04-01T21:10:42.964Z,88.58
2023-04-01T21:13:51.566Z,88.45
2023-04-01T21:16:40.683Z,88.60
2023-04-01T21:19:25.384Z,88.59
2023-04-01T21:22:22.545Z,88.86
2023-04-01T21:25:22.167Z,88.71
2023-04-01T21:27:49.729Z,88.68
2023-04-01T21:30:28.454Z,88.61
2023-04-01T21:32:59.083Z,88.92
2023-04-01T21:35:54.851Z,88.83
2023-04-01T21:38:22.368Z,89.07
2023-04-01T21:41:15.164Z,88.90
2023-04-01T21:44:07.742Z,89.21
2023-04-01T21:46:54.023Z,89.22
2023-04-01T21:49:33.692Z,89.32
2023-04-01T21:52:45.582Z,89.29
2023-04-01T21:55:48.448Z,89.29
2023-04-01T21:58:34.575Z,89.22
2023-04-01T22:01:36.212Z,89.05
2023-04-01T22:04:28.536Z,89.12
2023-04-01T22:07:11.319Z,89.20
2023-04-01T22:10:05.006Z,89.28
2023-04-01T22:12:46.644Z,89.23
2023-04-01T22:15:22.877Z,89.25
2023-04-01T22:17:57.267Z,89.29
2023-04-01T22:20:51.342Z,89.39
2023-04-01T22:23:30.922Z,89.22
2023-04-01T22:26:14.175Z,89.47
2023-04-01T22:28:52.664Z,89.43
2023-04-01T22:31:28.548Z,89.26
2023-04-01T22:34:29.274Z,89.30
2023-04-01T22:37:05.803Z,89.30
2023-04-01T22:40:10.888Z,89.29
2023-04-01T22:42:45.128Z,89.36
2023-04-01T22:45:37.131Z,89.23
2023-04-01T22:48:26.346Z,89.37
2023-04-01T22:51:26.136Z,89.40
2023-04-01T22:54:13.773Z,89.33
2023-04-01T22:56:47.121Z,89.39
2023-04-01T22:59:27.804Z,89.47
2023-04-01T23:02:00.860Z,89.43
2023-04-01T23:04:43.089Z,89.48
2023-04-01T23:07:47.876Z,89.56
2023-04-01T23:10:30.901Z,89.47
2023-04-01T23:13:02.712Z,89.59
2023-04-01T23:15:31.126Z,89.59
2023-04-01T23:18:10.098Z,89.60
2023-04-01T23:21:00.144Z,89.77
2023-04-01T23:23:40.387Z,89.86
2023-04-01T23:26:24.566Z,89.94
2023-04-01T23:28:55.059Z,89.98
2023-04-01T23:31:36.658Z,90.00
2023-04-01T23:34:13.425Z,89.98
2023-04-01T23:36:49.928Z,90.04
2023-04-01T23:39:39.140Z,90.14
2023-04-01T23:42:14.294Z,90.12
2023-04-01T23:44:43.193Z,90.15
2023-04-01T23:47:17.464Z,90.10
2023-04-01T23:50:01.730Z,90.11
2023-04-01T23:52:42.687Z,90.24
2023-04-01T23:55:25.966Z,90.24
2023-04-01T23:58:24.134Z,90.36
